sensor_id;sensor_type;location;lat;lon;timestamp;P1;durP1;ratioP1;P2;durP2;ratioP2
76552;SDS011;65395;53.168;18.156;2024-01-15T00:00:57;8.90;;;6.00;;
76552;SDS011;65395;53.168;18.156;2024-01-15T00:03:44;10.00;;;5.50;;
76552;SDS011;65395;53.168;18.156;2024-01-15T00:06:11;10.30;;;5.70;;
76552;SDS011;65395;53.168;18.156;2024-01-15T00:08:38;10.80;;;5.70;;
76552;SDS011;65395;53.168;18.156;2024-01-15T00:11:05;10.10;;;5.80;;
76552;SDS011;65395;53.168;18.156;2024-01-15T00:13:32;9.20;;;5.50;;
76552;SDS011;65395;53.168;18.156;2024-01-15T00:15:59;8.40;;;5.50;;
76552;SDS011;65395;53.168;18.156;2024-01-15T00:18:26;8.50;;;5.50;;
76552;SDS011;65395;53.168;18.156;2024-01-15T00:20:53;8.80;;;5.40;;
76552;SDS011;65395;53.168;18.156;2024-01-15T00:23:20;9.20;;;5.80;;
76552;SDS011;65395;53.168;18.156;2024-01-15T00:25:47;9.70;;;6.20;;
76552;SDS011;65395;53.168;18.156;2024-01-15T00:28:14;11.20;;;6.90;;
76552;SDS011;65395;53.168;18.156;2024-01-15T00:30:41;9.90;;;6.20;;
76552;SDS011;65395;53.168;18.156;2024-01-15T00:33:07;11.50;;;6.80;;
76552;SDS011;65395;53.168;18.156;2024-01-15T00:35:34;11.70;;;7.60;;
76552;SDS011;65395;53.168;18.156;2024-01-15T00:38:02;10.90;;;7.20;;
76552;SDS011;65395;53.168;18.156;2024-01-15T00:40:29;10.00;;;6.40;;
76552;SDS011;65395;53.168;18.156;2024-01-15T00:42:55;13.10;;;6.90;;
76552;SDS011;65395;53.168;18.156;2024-01-15T00:45:22;11.00;;;6.60;;
76552;SDS011;65395;53.168;18.156;2024-01-15T00:47:49;12.00;;;7.30;;
76552;SDS011;65395;53.168;18.156;2024-01-15T00:50:16;11.40;;;7.00;;
76552;SDS011;65395;53.168;18.156;2024-01-15T00:52:43;12.60;;;7.10;;
76552;SDS011;65395;53.168;18.156;2024-01-15T00:55:10;11.20;;;7.10;;
76552;SDS011;65395;53.168;18.156;2024-01-15T00:57:37;11.30;;;6.80;;
76552;SDS011;65395;53.168;18.156;2024-01-15T01:00:04;13.00;;;7.70;;
76552;SDS011;65395;53.168;18.156;2024-01-15T01:02:32;11.80;;;7.50;;
76552;SDS011;65395;53.168;18.156;2024-01-15T01:04:59;12.70;;;8.00;;
76552;SDS011;65395;53.168;18.156;2024-01-15T01:07:26;14.00;;;8.40;;
76552;SDS011;65395;53.168;18.156;2024-01-15T01:09:53;11.50;;;7.50;;
76552;SDS011;65395;53.168;18.156;2024-01-15T01:12:20;12.10;;;7.50;;
76552;SDS011;65395;53.168;18.156;2024-01-15T01:14:47;12.50;;;7.00;;
76552;SDS011;65395;53.168;18.156;2024-01-15T01:17:14;12.20;;;6.90;;
76552;SDS011;65395;53.168;18.156;2024-01-15T01:19:41;11.40;;;7.40;;
76552;SDS011;65395;53.168;18.156;2024-01-15T01:22:08;9.90;;;6.60;;
76552;SDS011;65395;53.168;18.156;2024-01-15T01:24:34;9.70;;;6.40;;
76552;SDS011;65395;53.168;18.156;2024-01-15T01:27:01;10.60;;;6.70;;
76552;SDS011;65395;53.168;18.156;2024-01-15T01:29:28;10.90;;;6.80;;
76552;SDS011;65395;53.168;18.156;2024-01-15T01:31:55;9.10;;;6.20;;
76552;SDS011;65395;53.168;18.156;2024-01-15T01:34:22;10.70;;;6.50;;
76552;SDS011;65395;53.168;18.156;2024-01-15T01:36:49;13.60;;;7.50;;
76552;SDS011;65395;53.168;18.156;2024-01-15T01:39:16;10.80;;;7.00;;
76552;SDS011;65395;53.168;18.156;2024-01-15T01:41:43;12.60;;;7.90;;
76552;SDS011;65395;53.168;18.156;2024-01-15T01:44:10;12.70;;;7.10;;
76552;SDS011;65395;53.168;18.156;2024-01-15T01:46:37;10.60;;;6.70;;
76552;SDS011;65395;53.168;18.156;2024-01-15T01:49:07;12.90;;;7.50;;
76552;SDS011;65395;53.168;18.156;2024-01-15T01:51:35;10.70;;;6.90;;
76552;SDS011;65395;53.168;18.156;2024-01-15T01:54:04;10.80;;;6.80;;
76552;SDS011;65395;53.168;18.156;2024-01-15T01:56:33;10.60;;;6.40;;
76552;SDS011;65395;53.168;18.156;2024-01-15T01:59:00;10.70;;;7.10;;
76552;SDS011;65395;53.168;18.156;2024-01-15T02:01:29;9.60;;;6.40;;
76552;SDS011;65395;53.168;18.156;2024-01-15T02:03:58;11.00;;;6.20;;
76552;SDS011;65395;53.168;18.156;2024-01-15T02:06:25;11.00;;;6.30;;
76552;SDS011;65395;53.168;18.156;2024-01-15T02:08:52;9.90;;;6.00;;
76552;SDS011;65395;53.168;18.156;2024-01-15T02:11:20;10.30;;;6.80;;
76552;SDS011;65395;53.168;18.156;2024-01-15T02:13:47;9.90;;;6.10;;
76552;SDS011;65395;53.168;18.156;2024-01-15T02:16:14;10.40;;;6.10;;
76552;SDS011;65395;53.168;18.156;2024-01-15T02:18:41;9.30;;;6.50;;
76552;SDS011;65395;53.168;18.156;2024-01-15T02:21:09;8.60;;;5.60;;
76552;SDS011;65395;53.168;18.156;2024-01-15T02:23:37;9.10;;;6.00;;
76552;SDS011;65395;53.168;18.156;2024-01-15T02:26:05;10.40;;;6.10;;
76552;SDS011;65395;53.168;18.156;2024-01-15T02:28:32;11.10;;;6.00;;
76552;SDS011;65395;53.168;18.156;2024-01-15T02:30:59;10.00;;;6.00;;
76552;SDS011;65395;53.168;18.156;2024-01-15T02:33:26;9.80;;;6.10;;
76552;SDS011;65395;53.168;18.156;2024-01-15T02:35:53;9.90;;;5.80;;
76552;SDS011;65395;53.168;18.156;2024-01-15T02:38:20;10.70;;;6.20;;
76552;SDS011;65395;53.168;18.156;2024-01-15T02:40:47;9.20;;;6.30;;
76552;SDS011;65395;53.168;18.156;2024-01-15T02:43:16;9.30;;;5.90;;
76552;SDS011;65395;53.168;18.156;2024-01-15T02:45:45;9.60;;;5.90;;
76552;SDS011;65395;53.168;18.156;2024-01-15T02:48:13;9.10;;;5.70;;
76552;SDS011;65395;53.168;18.156;2024-01-15T02:50:40;8.80;;;5.70;;
76552;SDS011;65395;53.168;18.156;2024-01-15T02:53:07;8.70;;;5.70;;
76552;SDS011;65395;53.168;18.156;2024-01-15T02:55:33;8.90;;;5.80;;
76552;SDS011;65395;53.168;18.156;2024-01-15T02:58:00;9.10;;;5.70;;
76552;SDS011;65395;53.168;18.156;2024-01-15T03:00:27;9.90;;;5.90;;
76552;SDS011;65395;53.168;18.156;2024-01-15T03:02:54;7.50;;;4.90;;
76552;SDS011;65395;53.168;18.156;2024-01-15T03:05:21;9.60;;;5.50;;
76552;SDS011;65395;53.168;18.156;2024-01-15T03:07:48;9.00;;;5.70;;
76552;SDS011;65395;53.168;18.156;2024-01-15T03:10:15;8.60;;;5.40;;
76552;SDS011;65395;53.168;18.156;2024-01-15T03:12:42;9.30;;;5.90;;
76552;SDS011;65395;53.168;18.156;2024-01-15T03:15:09;8.00;;;5.20;;
76552;SDS011;65395;53.168;18.156;2024-01-15T03:17:36;8.70;;;5.70;;
76552;SDS011;65395;53.168;18.156;2024-01-15T03:20:03;9.90;;;6.10;;
76552;SDS011;65395;53.168;18.156;2024-01-15T03:22:31;11.60;;;6.60;;
76552;SDS011;65395;53.168;18.156;2024-01-15T03:24:58;10.60;;;6.20;;
76552;SDS011;65395;53.168;18.156;2024-01-15T03:27:25;11.30;;;6.60;;
76552;SDS011;65395;53.168;18.156;2024-01-15T03:29:52;12.00;;;6.60;;
76552;SDS011;65395;53.168;18.156;2024-01-15T03:32:19;11.60;;;7.00;;
76552;SDS011;65395;53.168;18.156;2024-01-15T03:34:46;11.50;;;6.40;;
76552;SDS011;65395;53.168;18.156;2024-01-15T03:37:13;12.20;;;6.80;;
76552;SDS011;65395;53.168;18.156;2024-01-15T03:39:40;11.50;;;6.80;;
76552;SDS011;65395;53.168;18.156;2024-01-15T03:42:07;11.80;;;6.80;;
76552;SDS011;65395;53.168;18.156;2024-01-15T03:44:34;10.20;;;6.10;;
76552;SDS011;65395;53.168;18.156;2024-01-15T03:47:01;12.30;;;6.70;;
76552;SDS011;65395;53.168;18.156;2024-01-15T03:49:28;11.40;;;6.60;;
76552;SDS011;65395;53.168;18.156;2024-01-15T03:51:55;11.30;;;6.50;;
76552;SDS011;65395;53.168;18.156;2024-01-15T03:54:22;10.60;;;6.30;;
76552;SDS011;65395;53.168;18.156;2024-01-15T03:56:49;12.80;;;6.50;;
76552;SDS011;65395;53.168;18.156;2024-01-15T03:59:16;11.70;;;6.40;;
76552;SDS011;65395;53.168;18.156;2024-01-15T04:01:47;12.00;;;6.40;;
76552;SDS011;65395;53.168;18.156;2024-01-15T04:04:16;10.80;;;7.00;;
76552;SDS011;65395;53.168;18.156;2024-01-15T04:06:44;10.40;;;6.10;;
76552;SDS011;65395;53.168;18.156;2024-01-15T04:09:12;12.60;;;6.10;;
76552;SDS011;65395;53.168;18.156;2024-01-15T04:11:40;12.80;;;6.70;;
76552;SDS011;65395;53.168;18.156;2024-01-15T04:14:07;11.30;;;6.40;;
76552;SDS011;65395;53.168;18.156;2024-01-15T04:16:34;10.40;;;6.10;;
76552;SDS011;65395;53.168;18.156;2024-01-15T04:19:01;10.50;;;6.00;;
76552;SDS011;65395;53.168;18.156;2024-01-15T04:21:28;11.20;;;6.00;;
76552;SDS011;65395;53.168;18.156;2024-01-15T04:23:55;13.20;;;7.00;;
76552;SDS011;65395;53.168;18.156;2024-01-15T04:26:22;11.50;;;6.10;;
76552;SDS011;65395;53.168;18.156;2024-01-15T04:28:48;10.60;;;5.90;;
76552;SDS011;65395;53.168;18.156;2024-01-15T04:33:53;11.40;;;5.90;;
76552;SDS011;65395;53.168;18.156;2024-01-15T04:36:20;9.70;;;5.50;;
76552;SDS011;65395;53.168;18.156;2024-01-15T04:38:47;10.00;;;5.90;;
76552;SDS011;65395;53.168;18.156;2024-01-15T04:41:15;8.90;;;5.20;;
76552;SDS011;65395;53.168;18.156;2024-01-15T04:43:43;7.80;;;4.80;;
76552;SDS011;65395;53.168;18.156;2024-01-15T04:46:10;8.60;;;4.70;;
76552;SDS011;65395;53.168;18.156;2024-01-15T04:48:37;7.00;;;4.00;;
76552;SDS011;65395;53.168;18.156;2024-01-15T04:51:04;7.30;;;3.60;;
76552;SDS011;65395;53.168;18.156;2024-01-15T04:53:33;5.80;;;3.50;;
76552;SDS011;65395;53.168;18.156;2024-01-15T04:56:01;5.20;;;3.10;;
76552;SDS011;65395;53.168;18.156;2024-01-15T04:58:28;5.00;;;3.20;;
76552;SDS011;65395;53.168;18.156;2024-01-15T05:00:55;5.30;;;2.90;;
76552;SDS011;65395;53.168;18.156;2024-01-15T05:03:22;6.20;;;3.30;;
76552;SDS011;65395;53.168;18.156;2024-01-15T05:05:49;6.20;;;3.30;;
76552;SDS011;65395;53.168;18.156;2024-01-15T05:08:16;6.20;;;3.20;;
76552;SDS011;65395;53.168;18.156;2024-01-15T05:10:42;5.30;;;3.10;;
76552;SDS011;65395;53.168;18.156;2024-01-15T05:13:09;5.80;;;3.10;;
76552;SDS011;65395;53.168;18.156;2024-01-15T05:15:36;6.50;;;3.00;;
76552;SDS011;65395;53.168;18.156;2024-01-15T05:18:03;6.90;;;3.20;;
76552;SDS011;65395;53.168;18.156;2024-01-15T05:20:30;4.90;;;2.70;;
76552;SDS011;65395;53.168;18.156;2024-01-15T05:22:57;5.90;;;2.60;;
76552;SDS011;65395;53.168;18.156;2024-01-15T05:25:24;6.80;;;3.10;;
76552;SDS011;65395;53.168;18.156;2024-01-15T05:27:51;8.80;;;3.10;;
76552;SDS011;65395;53.168;18.156;2024-01-15T05:30:18;8.10;;;2.70;;
76552;SDS011;65395;53.168;18.156;2024-01-15T05:32:45;5.20;;;2.20;;
76552;SDS011;65395;53.168;18.156;2024-01-15T05:35:12;4.40;;;1.90;;
76552;SDS011;65395;53.168;18.156;2024-01-15T05:37:43;4.50;;;1.60;;
76552;SDS011;65395;53.168;18.156;2024-01-15T05:40:12;5.40;;;2.00;;
76552;SDS011;65395;53.168;18.156;2024-01-15T05:42:39;3.70;;;1.60;;
76552;SDS011;65395;53.168;18.156;2024-01-15T05:45:07;5.20;;;1.70;;
76552;SDS011;65395;53.168;18.156;2024-01-15T05:47:35;6.90;;;1.80;;
76552;SDS011;65395;53.168;18.156;2024-01-15T05:50:01;4.90;;;1.70;;
76552;SDS011;65395;53.168;18.156;2024-01-15T05:52:28;3.80;;;1.40;;
76552;SDS011;65395;53.168;18.156;2024-01-15T05:54:56;5.00;;;1.60;;
76552;SDS011;65395;53.168;18.156;2024-01-15T05:57:23;5.80;;;1.60;;
76552;SDS011;65395;53.168;18.156;2024-01-15T05:59:49;4.50;;;1.40;;
76552;SDS011;65395;53.168;18.156;2024-01-15T06:02:16;5.80;;;1.60;;
76552;SDS011;65395;53.168;18.156;2024-01-15T06:04:43;6.00;;;1.90;;
76552;SDS011;65395;53.168;18.156;2024-01-15T06:07:10;4.10;;;1.20;;
76552;SDS011;65395;53.168;18.156;2024-01-15T06:09:37;5.30;;;1.50;;
76552;SDS011;65395;53.168;18.156;2024-01-15T06:12:05;6.70;;;1.40;;
76552;SDS011;65395;53.168;18.156;2024-01-15T06:14:33;6.10;;;1.10;;
76552;SDS011;65395;53.168;18.156;2024-01-15T06:17:00;4.80;;;1.40;;
76552;SDS011;65395;53.168;18.156;2024-01-15T06:19:27;8.20;;;1.50;;
76552;SDS011;65395;53.168;18.156;2024-01-15T06:21:54;5.20;;;1.20;;
76552;SDS011;65395;53.168;18.156;2024-01-15T06:24:21;6.80;;;1.40;;
76552;SDS011;65395;53.168;18.156;2024-01-15T06:26:48;5.20;;;1.00;;
76552;SDS011;65395;53.168;18.156;2024-01-15T06:29:15;5.30;;;1.40;;
76552;SDS011;65395;53.168;18.156;2024-01-15T06:31:42;4.20;;;1.70;;
76552;SDS011;65395;53.168;18.156;2024-01-15T06:34:08;4.30;;;1.80;;
76552;SDS011;65395;53.168;18.156;2024-01-15T06:36:35;3.10;;;1.70;;
76552;SDS011;65395;53.168;18.156;2024-01-15T06:39:03;4.50;;;2.10;;
76552;SDS011;65395;53.168;18.156;2024-01-15T06:41:30;5.70;;;2.10;;
76552;SDS011;65395;53.168;18.156;2024-01-15T06:43:57;5.30;;;2.30;;
76552;SDS011;65395;53.168;18.156;2024-01-15T06:46:25;4.30;;;2.30;;
76552;SDS011;65395;53.168;18.156;2024-01-15T06:48:51;5.80;;;2.30;;
76552;SDS011;65395;53.168;18.156;2024-01-15T06:51:18;4.50;;;2.20;;
76552;SDS011;65395;53.168;18.156;2024-01-15T06:53:45;6.80;;;2.40;;
76552;SDS011;65395;53.168;18.156;2024-01-15T06:56:12;6.80;;;3.00;;
76552;SDS011;65395;53.168;18.156;2024-01-15T06:58:39;6.60;;;2.90;;
76552;SDS011;65395;53.168;18.156;2024-01-15T07:01:06;8.50;;;3.10;;
76552;SDS011;65395;53.168;18.156;2024-01-15T07:03:34;6.50;;;3.40;;
76552;SDS011;65395;53.168;18.156;2024-01-15T07:06:01;8.70;;;3.30;;
76552;SDS011;65395;53.168;18.156;2024-01-15T07:08:28;6.70;;;3.20;;
76552;SDS011;65395;53.168;18.156;2024-01-15T07:10:55;9.70;;;3.30;;
76552;SDS011;65395;53.168;18.156;2024-01-15T07:13:22;6.60;;;2.80;;
76552;SDS011;65395;53.168;18.156;2024-01-15T07:15:49;6.00;;;3.30;;
76552;SDS011;65395;53.168;18.156;2024-01-15T07:18:16;7.80;;;3.30;;
76552;SDS011;65395;53.168;18.156;2024-01-15T07:20:43;7.80;;;3.10;;
76552;SDS011;65395;53.168;18.156;2024-01-15T07:23:10;6.30;;;3.00;;
76552;SDS011;65395;53.168;18.156;2024-01-15T07:25:37;8.60;;;3.50;;
76552;SDS011;65395;53.168;18.156;2024-01-15T07:28:04;8.80;;;3.10;;
76552;SDS011;65395;53.168;18.156;2024-01-15T07:30:31;8.90;;;3.20;;
76552;SDS011;65395;53.168;18.156;2024-01-15T07:32:58;9.80;;;3.30;;
76552;SDS011;65395;53.168;18.156;2024-01-15T07:35:25;9.20;;;2.90;;
76552;SDS011;65395;53.168;18.156;2024-01-15T07:37:52;6.00;;;3.60;;
76552;SDS011;65395;53.168;18.156;2024-01-15T07:40:19;8.40;;;3.60;;
76552;SDS011;65395;53.168;18.156;2024-01-15T07:42:46;6.20;;;3.00;;
76552;SDS011;65395;53.168;18.156;2024-01-15T07:45:14;11.00;;;3.70;;
76552;SDS011;65395;53.168;18.156;2024-01-15T07:47:41;6.70;;;3.60;;
76552;SDS011;65395;53.168;18.156;2024-01-15T07:50:08;8.60;;;3.60;;
76552;SDS011;65395;53.168;18.156;2024-01-15T07:52:35;7.60;;;3.90;;
76552;SDS011;65395;53.168;18.156;2024-01-15T07:55:02;9.30;;;3.40;;
76552;SDS011;65395;53.168;18.156;2024-01-15T07:57:31;9.60;;;4.00;;
76552;SDS011;65395;53.168;18.156;2024-01-15T07:59:58;10.60;;;4.10;;
76552;SDS011;65395;53.168;18.156;2024-01-15T08:02:25;9.90;;;3.70;;
76552;SDS011;65395;53.168;18.156;2024-01-15T08:04:52;6.90;;;3.50;;
76552;SDS011;65395;53.168;18.156;2024-01-15T08:07:19;8.90;;;4.20;;
76552;SDS011;65395;53.168;18.156;2024-01-15T08:09:46;9.60;;;3.60;;
76552;SDS011;65395;53.168;18.156;2024-01-15T08:12:14;9.30;;;3.70;;
76552;SDS011;65395;53.168;18.156;2024-01-15T08:14:41;6.50;;;3.30;;
76552;SDS011;65395;53.168;18.156;2024-01-15T08:17:08;7.40;;;4.10;;
76552;SDS011;65395;53.168;18.156;2024-01-15T08:19:35;8.10;;;3.30;;
76552;SDS011;65395;53.168;18.156;2024-01-15T08:22:02;10.00;;;3.60;;
76552;SDS011;65395;53.168;18.156;2024-01-15T08:24:29;10.00;;;3.40;;
76552;SDS011;65395;53.168;18.156;2024-01-15T08:26:58;8.70;;;3.10;;
76552;SDS011;65395;53.168;18.156;2024-01-15T08:29:25;7.90;;;3.30;;
76552;SDS011;65395;53.168;18.156;2024-01-15T08:31:52;9.10;;;3.30;;
76552;SDS011;65395;53.168;18.156;2024-01-15T08:34:18;9.70;;;3.40;;
76552;SDS011;65395;53.168;18.156;2024-01-15T08:36:45;7.50;;;3.10;;
76552;SDS011;65395;53.168;18.156;2024-01-15T08:39:12;7.40;;;3.00;;
76552;SDS011;65395;53.168;18.156;2024-01-15T08:41:39;6.50;;;3.20;;
76552;SDS011;65395;53.168;18.156;2024-01-15T08:44:06;7.70;;;3.00;;
76552;SDS011;65395;53.168;18.156;2024-01-15T08:46:33;8.10;;;3.20;;
76552;SDS011;65395;53.168;18.156;2024-01-15T08:49:00;6.50;;;2.70;;
76552;SDS011;65395;53.168;18.156;2024-01-15T08:51:27;8.00;;;3.10;;
76552;SDS011;65395;53.168;18.156;2024-01-15T08:53:55;10.00;;;3.20;;
76552;SDS011;65395;53.168;18.156;2024-01-15T08:56:24;10.50;;;3.30;;
76552;SDS011;65395;53.168;18.156;2024-01-15T08:58:51;7.30;;;3.40;;
76552;SDS011;65395;53.168;18.156;2024-01-15T09:01:18;8.90;;;3.00;;
76552;SDS011;65395;53.168;18.156;2024-01-15T09:03:45;7.40;;;3.50;;
76552;SDS011;65395;53.168;18.156;2024-01-15T09:06:14;9.50;;;2.80;;
76552;SDS011;65395;53.168;18.156;2024-01-15T09:08:41;6.90;;;2.90;;
76552;SDS011;65395;53.168;18.156;2024-01-15T09:11:08;7.50;;;2.90;;
76552;SDS011;65395;53.168;18.156;2024-01-15T09:13:35;7.60;;;2.80;;
76552;SDS011;65395;53.168;18.156;2024-01-15T09:16:02;8.40;;;2.80;;
76552;SDS011;65395;53.168;18.156;2024-01-15T09:18:29;8.50;;;3.30;;
76552;SDS011;65395;53.168;18.156;2024-01-15T09:20:56;6.20;;;2.70;;
76552;SDS011;65395;53.168;18.156;2024-01-15T09:23:23;8.50;;;3.20;;
76552;SDS011;65395;53.168;18.156;2024-01-15T09:25:50;6.80;;;2.90;;
76552;SDS011;65395;53.168;18.156;2024-01-15T09:28:19;8.40;;;3.30;;
76552;SDS011;65395;53.168;18.156;2024-01-15T09:30:46;8.40;;;3.40;;
76552;SDS011;65395;53.168;18.156;2024-01-15T09:33:13;9.10;;;2.90;;
76552;SDS011;65395;53.168;18.156;2024-01-15T09:35:40;8.50;;;3.40;;
76552;SDS011;65395;53.168;18.156;2024-01-15T09:38:07;9.40;;;3.60;;
76552;SDS011;65395;53.168;18.156;2024-01-15T09:40:34;10.90;;;3.40;;
76552;SDS011;65395;53.168;18.156;2024-01-15T09:43:05;8.60;;;3.20;;
76552;SDS011;65395;53.168;18.156;2024-01-15T09:45:32;7.30;;;3.50;;
76552;SDS011;65395;53.168;18.156;2024-01-15T09:47:59;6.90;;;3.10;;
76552;SDS011;65395;53.168;18.156;2024-01-15T09:50:26;6.70;;;3.60;;
76552;SDS011;65395;53.168;18.156;2024-01-15T09:52:54;5.60;;;2.90;;
76552;SDS011;65395;53.168;18.156;2024-01-15T09:55:23;6.40;;;2.80;;
76552;SDS011;65395;53.168;18.156;2024-01-15T09:57:51;7.90;;;2.70;;
76552;SDS011;65395;53.168;18.156;2024-01-15T10:00:22;7.20;;;2.70;;
76552;SDS011;65395;53.168;18.156;2024-01-15T10:02:49;6.90;;;2.50;;
76552;SDS011;65395;53.168;18.156;2024-01-15T10:05:16;8.30;;;2.20;;
76552;SDS011;65395;53.168;18.156;2024-01-15T10:07:43;3.30;;;1.60;;
76552;SDS011;65395;53.168;18.156;2024-01-15T10:10:12;7.80;;;1.10;;
76552;SDS011;65395;53.168;18.156;2024-01-15T10:12:39;2.40;;;0.60;;
76552;SDS011;65395;53.168;18.156;2024-01-15T10:15:08;2.80;;;1.10;;
76552;SDS011;65395;53.168;18.156;2024-01-15T10:17:37;3.90;;;1.30;;
76552;SDS011;65395;53.168;18.156;2024-01-15T10:20:09;4.50;;;1.90;;
76552;SDS011;65395;53.168;18.156;2024-01-15T10:22:45;4.80;;;2.10;;
76552;SDS011;65395;53.168;18.156;2024-01-15T10:25:14;7.30;;;2.20;;
76552;SDS011;65395;53.168;18.156;2024-01-15T10:27:41;4.00;;;2.00;;
76552;SDS011;65395;53.168;18.156;2024-01-15T10:30:09;6.00;;;2.30;;
76552;SDS011;65395;53.168;18.156;2024-01-15T10:32:38;4.80;;;1.90;;
76552;SDS011;65395;53.168;18.156;2024-01-15T10:35:06;5.50;;;2.10;;
76552;SDS011;65395;53.168;18.156;2024-01-15T10:37:34;5.90;;;2.50;;
76552;SDS011;65395;53.168;18.156;2024-01-15T10:40:02;5.80;;;2.30;;
76552;SDS011;65395;53.168;18.156;2024-01-15T10:42:31;6.70;;;1.60;;
76552;SDS011;65395;53.168;18.156;2024-01-15T10:44:58;3.60;;;1.60;;
76552;SDS011;65395;53.168;18.156;2024-01-15T10:47:26;4.80;;;1.30;;
76552;SDS011;65395;53.168;18.156;2024-01-15T10:49:53;2.30;;;1.20;;
76552;SDS011;65395;53.168;18.156;2024-01-15T10:52:20;5.00;;;1.50;;
76552;SDS011;65395;53.168;18.156;2024-01-15T10:54:48;5.40;;;1.50;;
76552;SDS011;65395;53.168;18.156;2024-01-15T10:57:16;5.50;;;1.50;;
76552;SDS011;65395;53.168;18.156;2024-01-15T10:59:43;4.40;;;1.30;;
76552;SDS011;65395;53.168;18.156;2024-01-15T11:02:10;3.40;;;1.30;;
76552;SDS011;65395;53.168;18.156;2024-01-15T11:04:40;4.50;;;1.50;;
76552;SDS011;65395;53.168;18.156;2024-01-15T11:07:07;4.80;;;1.50;;
76552;SDS011;65395;53.168;18.156;2024-01-15T11:09:34;5.40;;;1.80;;
76552;SDS011;65395;53.168;18.156;2024-01-15T11:12:09;5.70;;;1.90;;
76552;SDS011;65395;53.168;18.156;2024-01-15T11:14:39;7.90;;;1.80;;
76552;SDS011;65395;53.168;18.156;2024-01-15T11:17:10;5.00;;;2.10;;
76552;SDS011;65395;53.168;18.156;2024-01-15T11:19:38;5.10;;;1.80;;
76552;SDS011;65395;53.168;18.156;2024-01-15T11:22:47;4.20;;;2.00;;
76552;SDS011;65395;53.168;18.156;2024-01-15T11:25:13;6.00;;;1.60;;
76552;SDS011;65395;53.168;18.156;2024-01-15T11:27:41;2.70;;;1.40;;
76552;SDS011;65395;53.168;18.156;2024-01-15T11:30:11;4.50;;;1.30;;
76552;SDS011;65395;53.168;18.156;2024-01-15T11:32:38;3.50;;;1.20;;
76552;SDS011;65395;53.168;18.156;2024-01-15T11:35:09;2.10;;;1.00;;
76552;SDS011;65395;53.168;18.156;2024-01-15T11:40:37;3.90;;;1.10;;
76552;SDS011;65395;53.168;18.156;2024-01-15T11:43:05;5.00;;;1.60;;
76552;SDS011;65395;53.168;18.156;2024-01-15T11:45:35;4.20;;;1.40;;
76552;SDS011;65395;53.168;18.156;2024-01-15T11:48:08;4.00;;;1.20;;
76552;SDS011;65395;53.168;18.156;2024-01-15T11:50:39;4.00;;;1.50;;
76552;SDS011;65395;53.168;18.156;2024-01-15T11:53:16;3.90;;;1.30;;
76552;SDS011;65395;53.168;18.156;2024-01-15T11:55:53;3.90;;;1.30;;
76552;SDS011;65395;53.168;18.156;2024-01-15T11:58:24;4.40;;;1.30;;
76552;SDS011;65395;53.168;18.156;2024-01-15T12:00:52;5.50;;;1.30;;
76552;SDS011;65395;53.168;18.156;2024-01-15T12:03:21;3.50;;;1.10;;
76552;SDS011;65395;53.168;18.156;2024-01-15T12:05:49;4.00;;;1.10;;
76552;SDS011;65395;53.168;18.156;2024-01-15T12:08:20;7.20;;;1.50;;
76552;SDS011;65395;53.168;18.156;2024-01-15T12:10:48;4.00;;;1.40;;
76552;SDS011;65395;53.168;18.156;2024-01-15T12:13:15;5.50;;;1.20;;
76552;SDS011;65395;53.168;18.156;2024-01-15T12:15:44;6.10;;;1.60;;
76552;SDS011;65395;53.168;18.156;2024-01-15T12:18:14;1.10;;;0.50;;
76552;SDS011;65395;53.168;18.156;2024-01-15T12:20:43;1.10;;;0.50;;
76552;SDS011;65395;53.168;18.156;2024-01-15T12:23:13;1.90;;;0.50;;
76552;SDS011;65395;53.168;18.156;2024-01-15T12:25:40;3.90;;;0.50;;
76552;SDS011;65395;53.168;18.156;2024-01-15T12:28:08;1.70;;;0.50;;
76552;SDS011;65395;53.168;18.156;2024-01-15T12:30:35;2.30;;;0.50;;
76552;SDS011;65395;53.168;18.156;2024-01-15T12:33:03;1.10;;;0.50;;
76552;SDS011;65395;53.168;18.156;2024-01-15T12:35:31;1.60;;;0.50;;
76552;SDS011;65395;53.168;18.156;2024-01-15T12:38:00;2.80;;;0.50;;
76552;SDS011;65395;53.168;18.156;2024-01-15T12:40:31;2.80;;;0.50;;
76552;SDS011;65395;53.168;18.156;2024-01-15T12:42:59;1.90;;;0.70;;
76552;SDS011;65395;53.168;18.156;2024-01-15T12:45:27;2.70;;;0.50;;
76552;SDS011;65395;53.168;18.156;2024-01-15T12:47:54;2.40;;;0.50;;
76552;SDS011;65395;53.168;18.156;2024-01-15T12:50:25;2.60;;;0.60;;
76552;SDS011;65395;53.168;18.156;2024-01-15T12:52:53;1.40;;;0.50;;
76552;SDS011;65395;53.168;18.156;2024-01-15T12:55:20;2.40;;;0.50;;
76552;SDS011;65395;53.168;18.156;2024-01-15T12:57:47;2.60;;;0.60;;
76552;SDS011;65395;53.168;18.156;2024-01-15T13:00:16;2.80;;;0.50;;
76552;SDS011;65395;53.168;18.156;2024-01-15T13:02:43;5.20;;;0.70;;
76552;SDS011;65395;53.168;18.156;2024-01-15T13:05:10;3.50;;;0.70;;
76552;SDS011;65395;53.168;18.156;2024-01-15T13:07:38;2.40;;;0.60;;
76552;SDS011;65395;53.168;18.156;2024-01-15T13:10:05;3.10;;;1.10;;
76552;SDS011;65395;53.168;18.156;2024-01-15T13:12:33;3.50;;;0.70;;
76552;SDS011;65395;53.168;18.156;2024-01-15T13:15:01;2.30;;;0.70;;
76552;SDS011;65395;53.168;18.156;2024-01-15T13:17:30;2.30;;;0.60;;
76552;SDS011;65395;53.168;18.156;2024-01-15T13:19:57;3.60;;;0.50;;
76552;SDS011;65395;53.168;18.156;2024-01-15T13:22:24;3.30;;;0.60;;
76552;SDS011;65395;53.168;18.156;2024-01-15T13:25:02;3.10;;;0.60;;
76552;SDS011;65395;53.168;18.156;2024-01-15T13:27:30;2.70;;;0.50;;
76552;SDS011;65395;53.168;18.156;2024-01-15T13:29:57;2.40;;;0.50;;
76552;SDS011;65395;53.168;18.156;2024-01-15T13:32:27;3.80;;;0.50;;
76552;SDS011;65395;53.168;18.156;2024-01-15T13:34:56;2.70;;;0.50;;
76552;SDS011;65395;53.168;18.156;2024-01-15T13:37:23;1.80;;;0.40;;
76552;SDS011;65395;53.168;18.156;2024-01-15T13:39:51;4.10;;;0.60;;
76552;SDS011;65395;53.168;18.156;2024-01-15T13:42:20;1.40;;;0.50;;
76552;SDS011;65395;53.168;18.156;2024-01-15T13:44:50;1.30;;;0.50;;
76552;SDS011;65395;53.168;18.156;2024-01-15T13:47:17;4.60;;;0.90;;
76552;SDS011;65395;53.168;18.156;2024-01-15T13:49:44;2.70;;;0.80;;
76552;SDS011;65395;53.168;18.156;2024-01-15T13:52:11;2.60;;;0.50;;
76552;SDS011;65395;53.168;18.156;2024-01-15T13:54:38;2.00;;;0.60;;
76552;SDS011;65395;53.168;18.156;2024-01-15T13:57:05;3.60;;;0.60;;
76552;SDS011;65395;53.168;18.156;2024-01-15T13:59:32;4.70;;;0.70;;
76552;SDS011;65395;53.168;18.156;2024-01-15T14:01:59;4.00;;;0.70;;
76552;SDS011;65395;53.168;18.156;2024-01-15T14:04:26;1.80;;;0.60;;
76552;SDS011;65395;53.168;18.156;2024-01-15T14:06:53;2.30;;;0.50;;
76552;SDS011;65395;53.168;18.156;2024-01-15T14:09:20;2.90;;;0.70;;
76552;SDS011;65395;53.168;18.156;2024-01-15T14:11:48;2.90;;;0.70;;
76552;SDS011;65395;53.168;18.156;2024-01-15T14:14:15;3.10;;;0.80;;
76552;SDS011;65395;53.168;18.156;2024-01-15T14:16:43;2.50;;;0.50;;
76552;SDS011;65395;53.168;18.156;2024-01-15T14:19:10;3.60;;;0.60;;
76552;SDS011;65395;53.168;18.156;2024-01-15T14:21:37;1.80;;;0.50;;
76552;SDS011;65395;53.168;18.156;2024-01-15T14:24:04;1.80;;;0.40;;
76552;SDS011;65395;53.168;18.156;2024-01-15T14:26:31;2.80;;;0.60;;
76552;SDS011;65395;53.168;18.156;2024-01-15T14:28:58;2.20;;;0.50;;
76552;SDS011;65395;53.168;18.156;2024-01-15T14:31:25;2.80;;;0.60;;
76552;SDS011;65395;53.168;18.156;2024-01-15T14:33:53;2.30;;;0.60;;
76552;SDS011;65395;53.168;18.156;2024-01-15T14:36:21;2.40;;;0.80;;
76552;SDS011;65395;53.168;18.156;2024-01-15T14:38:48;2.50;;;0.70;;